PGT2NG LTFJ-LTBS
Flight info
| Callsign | PGT2NG |
|---|---|
| Flight time | 0h 53m |
| Altitude | 37000 |
| Route | ROXUK UT409 NUMTI UT241 DEN UW87 LAVTA W87 ATSAL |
| Aircraft | A20N/M-SDE2E3FGHIJ1RWXY/LB1 |
Departure
| Time | 2026-04-22 13:44 |
|---|---|
| Airport | Istanbul Sabiha Gökçen International Airport (LTFJ) |
Arrival
| Time | 2026-04-22 14:37 |
|---|---|
| Airport | Dalaman International Airport (LTBS) |
| Time | Latitude | Longitude | Altitude | Speed | Heading |
|---|---|---|---|---|---|
| 2026-04-22 13:27 | 40.90823 | 29.32163 | 321 ft | 0 kts | 333° |
| 2026-04-22 13:32 | 40.90815 | 29.32169 | 321 ft | 2 kts | 332° |
| 2026-04-22 13:32 | 40.90804 | 29.32176 | 321 ft | 0 kts | 333° |
| 2026-04-22 13:32 | 40.90793 | 29.32184 | 321 ft | 2 kts | 322° |
| 2026-04-22 13:32 | 40.90782 | 29.32197 | 321 ft | 2 kts | 311° |
| 2026-04-22 13:33 | 40.90773 | 29.32213 | 321 ft | 2 kts | 300° |
| 2026-04-22 13:33 | 40.90766 | 29.32231 | 321 ft | 2 kts | 289° |
| 2026-04-22 13:33 | 40.90762 | 29.32250 | 321 ft | 2 kts | 277° |
| 2026-04-22 13:33 | 40.90762 | 29.32270 | 321 ft | 2 kts | 266° |
| 2026-04-22 13:34 | 40.90764 | 29.32290 | 321 ft | 2 kts | 255° |
| 2026-04-22 13:34 | 40.90768 | 29.32305 | 321 ft | 0 kts | 246° |
| 2026-04-22 13:34 | 40.90770 | 29.32312 | 321 ft | 0 kts | 243° |
| 2026-04-22 13:36 | 40.90768 | 29.32307 | 321 ft | 4 kts | 244° |
| 2026-04-22 13:36 | 40.90727 | 29.32272 | 321 ft | 8 kts | 166° |
| 2026-04-22 13:36 | 40.90655 | 29.32318 | 321 ft | 14 kts | 150° |
| 2026-04-22 13:36 | 40.90579 | 29.32318 | 321 ft | 10 kts | 230° |
| 2026-04-22 13:37 | 40.90548 | 29.32237 | 321 ft | 4 kts | 245° |
| 2026-04-22 13:37 | 40.90546 | 29.32231 | 321 ft | 1 kts | 245° |
| 2026-04-22 13:37 | 40.90521 | 29.32159 | 321 ft | 12 kts | 244° |
| 2026-04-22 13:37 | 40.90496 | 29.32091 | 321 ft | 12 kts | 244° |
| 2026-04-22 13:38 | 40.90456 | 29.31980 | 321 ft | 13 kts | 243° |
| 2026-04-22 13:38 | 40.90324 | 29.31622 | 321 ft | 23 kts | 244° |
| 2026-04-22 13:38 | 40.90255 | 29.31434 | 321 ft | 22 kts | 243° |
| 2026-04-22 13:39 | 40.90186 | 29.31247 | 321 ft | 19 kts | 244° |
| 2026-04-22 13:39 | 40.90134 | 29.31110 | 321 ft | 15 kts | 244° |
| 2026-04-22 13:39 | 40.90087 | 29.30980 | 321 ft | 16 kts | 244° |
| 2026-04-22 13:39 | 40.90029 | 29.30821 | 321 ft | 22 kts | 244° |
| 2026-04-22 13:40 | 40.89952 | 29.30615 | 321 ft | 26 kts | 244° |
| 2026-04-22 13:40 | 40.89873 | 29.30399 | 321 ft | 28 kts | 244° |
| 2026-04-22 13:40 | 40.89778 | 29.30142 | 321 ft | 31 kts | 244° |
| 2026-04-22 13:40 | 40.89684 | 29.29884 | 322 ft | 30 kts | 245° |
| 2026-04-22 13:41 | 40.89594 | 29.29641 | 322 ft | 28 kts | 244° |
| 2026-04-22 13:41 | 40.89507 | 29.29406 | 322 ft | 27 kts | 244° |
| 2026-04-22 13:41 | 40.89442 | 29.29266 | 322 ft | 14 kts | 209° |
| 2026-04-22 13:41 | 40.89381 | 29.29264 | 322 ft | 4 kts | 151° |
| 2026-04-22 13:42 | 40.89368 | 29.29273 | 322 ft | 0 kts | 151° |
| 2026-04-22 13:42 | 40.89355 | 29.29282 | 322 ft | 8 kts | 152° |
| 2026-04-22 13:42 | 40.89291 | 29.29345 | 322 ft | 12 kts | 108° |
| 2026-04-22 13:42 | 40.89297 | 29.29404 | 322 ft | 0 kts | 63° |
| 2026-04-22 13:43 | 40.89298 | 29.29406 | 322 ft | 1 kts | 63° |
| 2026-04-22 13:43 | 40.89403 | 29.29694 | 322 ft | 75 kts | 64° |
| 2026-04-22 13:44 | 40.89742 | 29.30615 | 322 ft | 145 kts | 64° |
| 2026-04-22 13:44 | 40.90213 | 29.31915 | 872 ft | 160 kts | 63° |
| 2026-04-22 13:44 | 40.90686 | 29.33225 | 1690 ft | 164 kts | 62° |
| 2026-04-22 13:44 | 40.91208 | 29.34620 | 2327 ft | 178 kts | 62° |
| 2026-04-22 13:45 | 40.91780 | 29.36147 | 2829 ft | 195 kts | 62° |
| 2026-04-22 13:45 | 40.92426 | 29.37876 | 3255 ft | 220 kts | 62° |
| 2026-04-22 13:45 | 40.92974 | 29.39815 | 3819 ft | 239 kts | 81° |
| 2026-04-22 13:45 | 40.92743 | 29.42029 | 4621 ft | 253 kts | 110° |
| 2026-04-22 13:46 | 40.91680 | 29.43916 | 5359 ft | 269 kts | 141° |
| 2026-04-22 13:46 | 40.89997 | 29.45094 | 6128 ft | 280 kts | 154° |
| 2026-04-22 13:46 | 40.88194 | 29.46175 | 6984 ft | 286 kts | 154° |
| 2026-04-22 13:46 | 40.86397 | 29.47287 | 7846 ft | 290 kts | 155° |
| 2026-04-22 13:47 | 40.84574 | 29.48436 | 8680 ft | 295 kts | 156° |
| 2026-04-22 13:47 | 40.82719 | 29.49612 | 9515 ft | 298 kts | 156° |
| 2026-04-22 13:47 | 40.80844 | 29.50803 | 10327 ft | 303 kts | 158° |
| 2026-04-22 13:47 | 40.78917 | 29.52025 | 10825 ft | 318 kts | 157° |
| 2026-04-22 13:48 | 40.76981 | 29.53642 | 11182 ft | 341 kts | 144° |
| 2026-04-22 13:48 | 40.75269 | 29.55950 | 11707 ft | 359 kts | 131° |
| 2026-04-22 13:48 | 40.73753 | 29.58590 | 12404 ft | 365 kts | 129° |
| 2026-04-22 13:48 | 40.72257 | 29.61298 | 13112 ft | 370 kts | 129° |
| 2026-04-22 13:49 | 40.70725 | 29.64039 | 13830 ft | 376 kts | 130° |
| 2026-04-22 13:49 | 40.69089 | 29.66744 | 14447 ft | 377 kts | 141° |
| 2026-04-22 13:49 | 40.66942 | 29.68556 | 15099 ft | 362 kts | 169° |
| 2026-04-22 13:49 | 40.64559 | 29.68980 | 15862 ft | 346 kts | 189° |
| 2026-04-22 13:50 | 40.62150 | 29.68847 | 16545 ft | 348 kts | 189° |
| 2026-04-22 13:50 | 40.59692 | 29.68746 | 17172 ft | 353 kts | 188° |
| 2026-04-22 13:50 | 40.57225 | 29.68696 | 17821 ft | 356 kts | 188° |
| 2026-04-22 13:50 | 40.54759 | 29.68671 | 18444 ft | 360 kts | 187° |
| 2026-04-22 13:51 | 40.52259 | 29.68658 | 19062 ft | 363 kts | 187° |
| 2026-04-22 13:51 | 40.49706 | 29.68650 | 19650 ft | 367 kts | 187° |
| 2026-04-22 13:51 | 40.47142 | 29.68643 | 20224 ft | 370 kts | 187° |
| 2026-04-22 13:51 | 40.44559 | 29.68640 | 20798 ft | 374 kts | 187° |
| 2026-04-22 13:52 | 40.41950 | 29.68633 | 21356 ft | 377 kts | 188° |
| 2026-04-22 13:52 | 40.39327 | 29.68626 | 21920 ft | 380 kts | 188° |
| 2026-04-22 13:52 | 40.36657 | 29.68616 | 22467 ft | 384 kts | 188° |
| 2026-04-22 13:52 | 40.33989 | 29.68607 | 22981 ft | 387 kts | 188° |
| 2026-04-22 13:53 | 40.31296 | 29.68599 | 23485 ft | 390 kts | 188° |
| 2026-04-22 13:53 | 40.28580 | 29.68592 | 23979 ft | 394 kts | 188° |
| 2026-04-22 13:53 | 40.25835 | 29.68589 | 24494 ft | 397 kts | 188° |
| 2026-04-22 13:53 | 40.23047 | 29.68586 | 24996 ft | 399 kts | 188° |
| 2026-04-22 13:54 | 40.20236 | 29.68579 | 25450 ft | 403 kts | 188° |
| 2026-04-22 13:54 | 40.17449 | 29.68634 | 25891 ft | 408 kts | 185° |
| 2026-04-22 13:54 | 40.14599 | 29.68894 | 26333 ft | 413 kts | 182° |
| 2026-04-22 13:54 | 40.11693 | 29.69223 | 26759 ft | 416 kts | 182° |
| 2026-04-22 13:55 | 40.08813 | 29.69555 | 27181 ft | 419 kts | 182° |
| 2026-04-22 13:55 | 40.05885 | 29.69893 | 27588 ft | 422 kts | 182° |
| 2026-04-22 13:55 | 40.01976 | 29.70343 | 28153 ft | 424 kts | 182° |
| 2026-04-22 13:55 | 40.00014 | 29.70567 | 28426 ft | 425 kts | 182° |
| 2026-04-22 13:56 | 39.97074 | 29.70902 | 28798 ft | 428 kts | 182° |
| 2026-04-22 13:56 | 39.94122 | 29.71207 | 29166 ft | 427 kts | 185° |
| 2026-04-22 13:56 | 39.91170 | 29.71041 | 29511 ft | 422 kts | 194° |
| 2026-04-22 13:56 | 39.88289 | 29.70274 | 29903 ft | 415 kts | 203° |
| 2026-04-22 13:57 | 39.85600 | 29.68974 | 30379 ft | 408 kts | 211° |
| 2026-04-22 13:57 | 39.83140 | 29.67250 | 30852 ft | 402 kts | 217° |
| 2026-04-22 13:57 | 39.80759 | 29.65399 | 31298 ft | 400 kts | 217° |
| 2026-04-22 13:57 | 39.78388 | 29.63534 | 31696 ft | 400 kts | 217° |
| 2026-04-22 13:58 | 39.76001 | 29.61660 | 32093 ft | 399 kts | 217° |
| 2026-04-22 13:58 | 39.73612 | 29.59792 | 32462 ft | 399 kts | 218° |
| 2026-04-22 13:58 | 39.71256 | 29.57953 | 32828 ft | 399 kts | 218° |
| 2026-04-22 13:58 | 39.68856 | 29.56083 | 33165 ft | 399 kts | 218° |
| 2026-04-22 13:59 | 39.66506 | 29.54254 | 33486 ft | 399 kts | 218° |
| 2026-04-22 13:59 | 39.64152 | 29.52390 | 33826 ft | 396 kts | 220° |
| 2026-04-22 13:59 | 39.61862 | 29.50400 | 34143 ft | 394 kts | 221° |
| 2026-04-22 13:59 | 39.59582 | 29.48389 | 34448 ft | 394 kts | 221° |
| 2026-04-22 14:00 | 39.57347 | 29.46423 | 34749 ft | 394 kts | 221° |
| 2026-04-22 14:00 | 39.55077 | 29.44425 | 35020 ft | 393 kts | 221° |
| 2026-04-22 14:00 | 39.52810 | 29.42429 | 35249 ft | 392 kts | 221° |
| 2026-04-22 14:00 | 39.50548 | 29.40440 | 35441 ft | 392 kts | 221° |
| 2026-04-22 14:01 | 39.48283 | 29.38448 | 35650 ft | 392 kts | 221° |
| 2026-04-22 14:01 | 39.46061 | 29.36498 | 35846 ft | 391 kts | 221° |
| 2026-04-22 14:01 | 39.43792 | 29.34508 | 36050 ft | 391 kts | 221° |
| 2026-04-22 14:01 | 39.41536 | 29.32529 | 36219 ft | 391 kts | 221° |
| 2026-04-22 14:02 | 39.39310 | 29.30580 | 36361 ft | 391 kts | 221° |
| 2026-04-22 14:02 | 39.37048 | 29.28603 | 36516 ft | 391 kts | 221° |
| 2026-04-22 14:02 | 39.34800 | 29.26636 | 36674 ft | 392 kts | 221° |
| 2026-04-22 14:02 | 39.32543 | 29.24663 | 36841 ft | 392 kts | 220° |
| 2026-04-22 14:03 | 39.30259 | 29.22669 | 36951 ft | 394 kts | 220° |
| 2026-04-22 14:03 | 39.28013 | 29.20710 | 36957 ft | 394 kts | 220° |
| 2026-04-22 14:03 | 39.23448 | 29.16735 | 36957 ft | 395 kts | 221° |
| 2026-04-22 14:04 | 39.18912 | 29.12790 | 36955 ft | 395 kts | 221° |
| 2026-04-22 14:04 | 39.14336 | 29.08815 | 36961 ft | 395 kts | 220° |
| 2026-04-22 14:05 | 39.09808 | 29.04890 | 36958 ft | 395 kts | 221° |
| 2026-04-22 14:06 | 39.02949 | 28.98954 | 36959 ft | 396 kts | 221° |
| 2026-04-22 14:06 | 38.98393 | 28.95020 | 36962 ft | 396 kts | 221° |
| 2026-04-22 14:07 | 38.93816 | 28.91075 | 36966 ft | 396 kts | 221° |
| 2026-04-22 14:07 | 38.89222 | 28.87117 | 36965 ft | 396 kts | 221° |
| 2026-04-22 14:08 | 38.84646 | 28.83185 | 36963 ft | 397 kts | 221° |
| 2026-04-22 14:08 | 38.80055 | 28.79247 | 36961 ft | 397 kts | 221° |
| 2026-04-22 14:09 | 38.75472 | 28.75320 | 36959 ft | 396 kts | 221° |
| 2026-04-22 14:09 | 38.70885 | 28.71397 | 36958 ft | 396 kts | 221° |
| 2026-04-22 14:10 | 38.66290 | 28.67473 | 36954 ft | 397 kts | 221° |
| 2026-04-22 14:10 | 38.61458 | 28.63946 | 36949 ft | 406 kts | 211° |
| 2026-04-22 14:11 | 38.56015 | 28.61766 | 36947 ft | 413 kts | 198° |
| 2026-04-22 14:11 | 38.50266 | 28.61163 | 36855 ft | 421 kts | 186° |
| 2026-04-22 14:11 | 38.47337 | 28.61418 | 36592 ft | 424 kts | 183° |
| 2026-04-22 14:12 | 38.44388 | 28.61773 | 36368 ft | 425 kts | 182° |
| 2026-04-22 14:12 | 38.41428 | 28.62141 | 36144 ft | 425 kts | 182° |
| 2026-04-22 14:12 | 38.38475 | 28.62503 | 35920 ft | 427 kts | 182° |
| 2026-04-22 14:12 | 38.35520 | 28.62863 | 35682 ft | 427 kts | 182° |
| 2026-04-22 14:13 | 38.32542 | 28.63219 | 35448 ft | 429 kts | 182° |
| 2026-04-22 14:13 | 38.29576 | 28.63570 | 35195 ft | 430 kts | 182° |
| 2026-04-22 14:13 | 38.26582 | 28.63924 | 34860 ft | 432 kts | 182° |
| 2026-04-22 14:13 | 38.23598 | 28.64275 | 34327 ft | 433 kts | 182° |
| 2026-04-22 14:14 | 38.20610 | 28.64626 | 33735 ft | 434 kts | 182° |
| 2026-04-22 14:14 | 38.17594 | 28.64980 | 33124 ft | 434 kts | 182° |
| 2026-04-22 14:14 | 38.14557 | 28.65335 | 32483 ft | 436 kts | 181° |
| 2026-04-22 14:14 | 38.11543 | 28.65687 | 31846 ft | 437 kts | 181° |
| 2026-04-22 14:15 | 38.08529 | 28.66041 | 31198 ft | 438 kts | 181° |
| 2026-04-22 14:15 | 38.05495 | 28.66397 | 30526 ft | 439 kts | 181° |
| 2026-04-22 14:15 | 38.02480 | 28.66750 | 29845 ft | 440 kts | 181° |
| 2026-04-22 14:15 | 37.99418 | 28.67109 | 29150 ft | 440 kts | 181° |
| 2026-04-22 14:16 | 37.96383 | 28.67466 | 28445 ft | 441 kts | 180° |
| 2026-04-22 14:16 | 37.93306 | 28.67826 | 27889 ft | 438 kts | 180° |
| 2026-04-22 14:16 | 37.90306 | 28.68181 | 27426 ft | 433 kts | 180° |
| 2026-04-22 14:16 | 37.87325 | 28.68532 | 26956 ft | 428 kts | 180° |
| 2026-04-22 14:17 | 37.84351 | 28.68881 | 26475 ft | 424 kts | 180° |
| 2026-04-22 14:17 | 37.81451 | 28.69218 | 26009 ft | 420 kts | 180° |
| 2026-04-22 14:17 | 37.78538 | 28.69558 | 25541 ft | 416 kts | 180° |
| 2026-04-22 14:17 | 37.75666 | 28.69891 | 25062 ft | 413 kts | 180° |
| 2026-04-22 14:18 | 37.72807 | 28.70222 | 24572 ft | 410 kts | 181° |
| 2026-04-22 14:18 | 37.69970 | 28.70455 | 24106 ft | 405 kts | 182° |
| 2026-04-22 14:18 | 37.67187 | 28.70651 | 23641 ft | 402 kts | 182° |
| 2026-04-22 14:18 | 37.64408 | 28.70846 | 23174 ft | 399 kts | 182° |
| 2026-04-22 14:19 | 37.61656 | 28.71040 | 22712 ft | 396 kts | 182° |
| 2026-04-22 14:19 | 37.58897 | 28.71235 | 22246 ft | 393 kts | 182° |
| 2026-04-22 14:19 | 37.56194 | 28.71425 | 21783 ft | 391 kts | 182° |
| 2026-04-22 14:19 | 37.53462 | 28.71618 | 21310 ft | 388 kts | 182° |
| 2026-04-22 14:20 | 37.48230 | 28.70911 | 20372 ft | 372 kts | 202° |
| 2026-04-22 14:20 | 37.45831 | 28.69827 | 19935 ft | 366 kts | 207° |
| 2026-04-22 14:20 | 37.43478 | 28.68628 | 19480 ft | 364 kts | 207° |
| 2026-04-22 14:21 | 37.38812 | 28.66227 | 18563 ft | 360 kts | 207° |
| 2026-04-22 14:21 | 37.36509 | 28.65056 | 18105 ft | 358 kts | 207° |
| 2026-04-22 14:22 | 37.31894 | 28.62728 | 17204 ft | 355 kts | 207° |
| 2026-04-22 14:22 | 37.29595 | 28.61572 | 16752 ft | 354 kts | 206° |
| 2026-04-22 14:22 | 37.25104 | 28.59320 | 16135 ft | 340 kts | 206° |
| 2026-04-22 14:23 | 37.22823 | 28.58593 | 15974 ft | 335 kts | 189° |
| 2026-04-22 14:23 | 37.20499 | 28.58744 | 15688 ft | 335 kts | 173° |
| 2026-04-22 14:23 | 37.18253 | 28.59413 | 15394 ft | 325 kts | 170° |
| 2026-04-22 14:23 | 37.16130 | 28.60123 | 15171 ft | 311 kts | 169° |
| 2026-04-22 14:24 | 37.14089 | 28.61001 | 14921 ft | 308 kts | 152° |
| 2026-04-22 14:24 | 37.12553 | 28.62852 | 14683 ft | 311 kts | 122° |
| 2026-04-22 14:24 | 37.11880 | 28.65404 | 14337 ft | 311 kts | 92° |
| 2026-04-22 14:24 | 37.12109 | 28.68048 | 14045 ft | 307 kts | 76° |
| 2026-04-22 14:25 | 37.12563 | 28.70658 | 13722 ft | 306 kts | 76° |
| 2026-04-22 14:25 | 37.13000 | 28.73259 | 13398 ft | 305 kts | 77° |
| 2026-04-22 14:25 | 37.13397 | 28.75828 | 13067 ft | 304 kts | 78° |
| 2026-04-22 14:25 | 37.13778 | 28.78446 | 12743 ft | 302 kts | 78° |
| 2026-04-22 14:26 | 37.14143 | 28.81032 | 12418 ft | 301 kts | 78° |
| 2026-04-22 14:26 | 37.14503 | 28.83602 | 12096 ft | 300 kts | 79° |
| 2026-04-22 14:26 | 37.14861 | 28.86169 | 11776 ft | 299 kts | 79° |
| 2026-04-22 14:26 | 37.15220 | 28.88745 | 11446 ft | 298 kts | 79° |
| 2026-04-22 14:27 | 37.15574 | 28.91288 | 11141 ft | 296 kts | 79° |
| 2026-04-22 14:27 | 37.15880 | 28.93779 | 10986 ft | 287 kts | 87° |
| 2026-04-22 14:27 | 37.15501 | 28.96150 | 10910 ft | 274 kts | 122° |
| 2026-04-22 14:27 | 37.14259 | 28.97919 | 10593 ft | 271 kts | 143° |
| 2026-04-22 14:28 | 37.12791 | 28.99397 | 10263 ft | 270 kts | 144° |
| 2026-04-22 14:28 | 37.11322 | 29.00881 | 9940 ft | 269 kts | 143° |
| 2026-04-22 14:28 | 37.09898 | 29.02392 | 9653 ft | 266 kts | 142° |
| 2026-04-22 14:28 | 37.08509 | 29.03913 | 9371 ft | 264 kts | 142° |
| 2026-04-22 14:29 | 37.06997 | 29.05151 | 9057 ft | 256 kts | 168° |
| 2026-04-22 14:29 | 37.05304 | 29.05147 | 8759 ft | 244 kts | 204° |
| 2026-04-22 14:29 | 37.03924 | 29.04003 | 8444 ft | 239 kts | 227° |
| 2026-04-22 14:29 | 37.02765 | 29.02492 | 8115 ft | 239 kts | 227° |
| 2026-04-22 14:30 | 37.01592 | 29.01014 | 7777 ft | 238 kts | 226° |
| 2026-04-22 14:30 | 37.00410 | 28.99566 | 7458 ft | 237 kts | 225° |
| 2026-04-22 14:30 | 36.99231 | 28.98142 | 7143 ft | 236 kts | 225° |
| 2026-04-22 14:30 | 36.98040 | 28.96713 | 6770 ft | 238 kts | 225° |
| 2026-04-22 14:31 | 36.96861 | 28.95303 | 6468 ft | 233 kts | 225° |
| 2026-04-22 14:31 | 36.95690 | 28.93906 | 6042 ft | 229 kts | 225° |
| 2026-04-22 14:31 | 36.94549 | 28.92544 | 5603 ft | 224 kts | 225° |
| 2026-04-22 14:31 | 36.93467 | 28.91201 | 5295 ft | 214 kts | 226° |
| 2026-04-22 14:32 | 36.92466 | 28.89930 | 5163 ft | 196 kts | 226° |
| 2026-04-22 14:32 | 36.91531 | 28.88741 | 4877 ft | 192 kts | 226° |
| 2026-04-22 14:32 | 36.90583 | 28.87536 | 4440 ft | 196 kts | 226° |
| 2026-04-22 14:32 | 36.89618 | 28.86324 | 4296 ft | 197 kts | 223° |
| 2026-04-22 14:33 | 36.88486 | 28.85358 | 4295 ft | 199 kts | 208° |
| 2026-04-22 14:33 | 36.87215 | 28.84706 | 4139 ft | 194 kts | 200° |
| 2026-04-22 14:33 | 36.85938 | 28.84219 | 3921 ft | 188 kts | 197° |
| 2026-04-22 14:33 | 36.84700 | 28.83798 | 3658 ft | 182 kts | 195° |
| 2026-04-22 14:34 | 36.83512 | 28.83402 | 3280 ft | 174 kts | 195° |
| 2026-04-22 14:34 | 36.82340 | 28.83007 | 2803 ft | 170 kts | 195° |
| 2026-04-22 14:34 | 36.81221 | 28.82627 | 2363 ft | 166 kts | 196° |
| 2026-04-22 14:34 | 36.80126 | 28.82254 | 1979 ft | 159 kts | 196° |
| 2026-04-22 14:35 | 36.79094 | 28.81903 | 1669 ft | 152 kts | 196° |
| 2026-04-22 14:35 | 36.78104 | 28.81565 | 1375 ft | 143 kts | 196° |
| 2026-04-22 14:35 | 36.77162 | 28.81244 | 1106 ft | 139 kts | 196° |
| 2026-04-22 14:35 | 36.76218 | 28.80922 | 881 ft | 139 kts | 196° |
| 2026-04-22 14:36 | 36.75288 | 28.80604 | 661 ft | 138 kts | 196° |
| 2026-04-22 14:36 | 36.74375 | 28.80294 | 444 ft | 136 kts | 195° |
| 2026-04-22 14:36 | 36.73459 | 28.79982 | 256 ft | 135 kts | 196° |
| 2026-04-22 14:36 | 36.72549 | 28.79669 | 57 ft | 134 kts | 196° |
| 2026-04-22 14:37 | 36.71735 | 28.79395 | 21 ft | 88 kts | 197° |
| 2026-04-22 14:37 | 36.71298 | 28.79244 | 18 ft | 55 kts | 195° |
| 2026-04-22 14:37 | 36.70986 | 28.79138 | 16 ft | 38 kts | 195° |
| 2026-04-22 14:37 | 36.70777 | 28.79058 | 15 ft | 25 kts | 203° |
| 2026-04-22 14:38 | 36.70639 | 28.78949 | 14 ft | 16 kts | 221° |
| 2026-04-22 14:38 | 36.70577 | 28.78871 | 15 ft | 9 kts | 242° |
| 2026-04-22 14:38 | 36.70596 | 28.78800 | 16 ft | 9 kts | 330° |
| 2026-04-22 14:38 | 36.70665 | 28.78814 | 16 ft | 11 kts | 15° |
| 2026-04-22 14:39 | 36.70793 | 28.78856 | 15 ft | 24 kts | 15° |
| 2026-04-22 14:39 | 36.70956 | 28.78911 | 16 ft | 23 kts | 15° |
| 2026-04-22 14:39 | 36.71111 | 28.78965 | 18 ft | 22 kts | 15° |
| 2026-04-22 14:40 | 36.71327 | 28.78998 | 19 ft | 10 kts | 294° |
| 2026-04-22 14:40 | 36.71350 | 28.78905 | 19 ft | 11 kts | 285° |
| 2026-04-22 14:40 | 36.71392 | 28.78849 | 20 ft | 10 kts | 8° |
| 2026-04-22 14:40 | 36.71461 | 28.78871 | 22 ft | 10 kts | 15° |
| 2026-04-22 14:41 | 36.71524 | 28.78894 | 23 ft | 8 kts | 16° |
| 2026-04-22 14:41 | 36.71580 | 28.78912 | 24 ft | 7 kts | 15° |
| 2026-04-22 14:41 | 36.71631 | 28.78930 | 24 ft | 7 kts | 16° |
| 2026-04-22 14:41 | 36.71684 | 28.78939 | 23 ft | 7 kts | 326° |
| 2026-04-22 14:42 | 36.71703 | 28.78888 | 24 ft | 5 kts | 285° |
| 2026-04-22 14:42 | 36.71708 | 28.78868 | 25 ft | 0 kts | 285° |
| 2026-04-22 14:42 | 36.71709 | 28.78865 | 25 ft | 0 kts | 285° |